sensor_id;sensor_type;location;lat;lon;timestamp;P1;durP1;ratioP1;P2;durP2;ratioP2
47335;SDS011;33068;51.990;5.926;2023-04-24T00:01:55;11.55;;;8.07;;
47335;SDS011;33068;51.990;5.926;2023-04-24T00:04:44;9.07;;;7.55;;
47335;SDS011;33068;51.990;5.926;2023-04-24T00:07:47;10.90;;;8.57;;
47335;SDS011;33068;51.990;5.926;2023-04-24T00:10:24;13.10;;;8.95;;
47335;SDS011;33068;51.990;5.926;2023-04-24T00:13:45;11.90;;;8.75;;
47335;SDS011;33068;51.990;5.926;2023-04-24T00:16:54;13.50;;;9.60;;
47335;SDS011;33068;51.990;5.926;2023-04-24T00:19:49;13.07;;;9.23;;
47335;SDS011;33068;51.990;5.926;2023-04-24T00:22:39;10.93;;;8.48;;
47335;SDS011;33068;51.990;5.926;2023-04-24T00:28:43;8.18;;;7.15;;
47335;SDS011;33068;51.990;5.926;2023-04-24T00:31:24;8.50;;;6.70;;
47335;SDS011;33068;51.990;5.926;2023-04-24T00:34:20;5.20;;;4.65;;
47335;SDS011;33068;51.990;5.926;2023-04-24T00:37:01;4.15;;;3.67;;
47335;SDS011;33068;51.990;5.926;2023-04-24T00:40:02;5.03;;;3.28;;
47335;SDS011;33068;51.990;5.926;2023-04-24T00:42:34;5.40;;;3.42;;
47335;SDS011;33068;51.990;5.926;2023-04-24T00:51:03;4.25;;;3.30;;
47335;SDS011;33068;51.990;5.926;2023-04-24T00:53:44;6.28;;;3.20;;
47335;SDS011;33068;51.990;5.926;2023-04-24T00:56:34;4.15;;;2.70;;
47335;SDS011;33068;51.990;5.926;2023-04-24T00:59:26;4.22;;;3.50;;
47335;SDS011;33068;51.990;5.926;2023-04-24T01:02:22;4.95;;;4.32;;
47335;SDS011;33068;51.990;5.926;2023-04-24T01:04:57;7.78;;;4.90;;
47335;SDS011;33068;51.990;5.926;2023-04-24T01:08:16;10.02;;;5.82;;
47335;SDS011;33068;51.990;5.926;2023-04-24T01:10:50;9.20;;;7.18;;
47335;SDS011;33068;51.990;5.926;2023-04-24T01:13:21;14.23;;;8.90;;
47335;SDS011;33068;51.990;5.926;2023-04-24T01:16:04;14.88;;;9.15;;
47335;SDS011;33068;51.990;5.926;2023-04-24T01:18:44;22.08;;;13.15;;
47335;SDS011;33068;51.990;5.926;2023-04-24T01:21:29;23.75;;;14.02;;
47335;SDS011;33068;51.990;5.926;2023-04-24T01:24:25;25.00;;;15.50;;
47335;SDS011;33068;51.990;5.926;2023-04-24T01:26:56;29.77;;;17.02;;
47335;SDS011;33068;51.990;5.926;2023-04-24T01:29:38;33.65;;;17.23;;
47335;SDS011;33068;51.990;5.926;2023-04-24T01:32:17;31.52;;;17.17;;
47335;SDS011;33068;51.990;5.926;2023-04-24T01:34:59;35.60;;;18.88;;
47335;SDS011;33068;51.990;5.926;2023-04-24T01:37:43;34.40;;;19.85;;
47335;SDS011;33068;51.990;5.926;2023-04-24T01:40:26;35.42;;;19.48;;
47335;SDS011;33068;51.990;5.926;2023-04-24T01:43:06;38.17;;;20.08;;
47335;SDS011;33068;51.990;5.926;2023-04-24T01:45:54;40.03;;;20.02;;
47335;SDS011;33068;51.990;5.926;2023-04-24T01:51:27;33.00;;;17.40;;
47335;SDS011;33068;51.990;5.926;2023-04-24T01:54:29;24.08;;;12.70;;
47335;SDS011;33068;51.990;5.926;2023-04-24T02:01:36;23.50;;;14.02;;
47335;SDS011;33068;51.990;5.926;2023-04-24T02:04:52;25.65;;;14.20;;
47335;SDS011;33068;51.990;5.926;2023-04-24T02:07:45;25.15;;;14.02;;
47335;SDS011;33068;51.990;5.926;2023-04-24T02:10:38;26.50;;;14.05;;
47335;SDS011;33068;51.990;5.926;2023-04-24T02:14:22;31.15;;;16.95;;
47335;SDS011;33068;51.990;5.926;2023-04-24T02:20:33;37.78;;;19.25;;
47335;SDS011;33068;51.990;5.926;2023-04-24T02:28:12;41.42;;;24.15;;
47335;SDS011;33068;51.990;5.926;2023-04-24T02:30:22;55.40;;;26.50;;
47335;SDS011;33068;51.990;5.926;2023-04-24T02:33:16;51.45;;;27.83;;
47335;SDS011;33068;51.990;5.926;2023-04-24T02:36:50;47.03;;;26.48;;
47335;SDS011;33068;51.990;5.926;2023-04-24T02:39:25;49.50;;;26.40;;
47335;SDS011;33068;51.990;5.926;2023-04-24T02:46:07;53.78;;;28.13;;
47335;SDS011;33068;51.990;5.926;2023-04-24T02:52:38;50.88;;;28.83;;
47335;SDS011;33068;51.990;5.926;2023-04-24T02:57:34;52.85;;;27.85;;
47335;SDS011;33068;51.990;5.926;2023-04-24T02:58:59;49.72;;;26.15;;
47335;SDS011;33068;51.990;5.926;2023-04-24T03:01:40;43.20;;;24.90;;
47335;SDS011;33068;51.990;5.926;2023-04-24T03:04:21;47.92;;;26.13;;
47335;SDS011;33068;51.990;5.926;2023-04-24T03:07:07;48.75;;;26.05;;
47335;SDS011;33068;51.990;5.926;2023-04-24T03:10:16;45.90;;;24.85;;
47335;SDS011;33068;51.990;5.926;2023-04-24T03:13:22;48.88;;;25.90;;
47335;SDS011;33068;51.990;5.926;2023-04-24T03:16:44;47.03;;;25.38;;
47335;SDS011;33068;51.990;5.926;2023-04-24T03:19:52;47.17;;;23.77;;
47335;SDS011;33068;51.990;5.926;2023-04-24T03:23:03;44.47;;;25.17;;
47335;SDS011;33068;51.990;5.926;2023-04-24T03:25:42;48.22;;;24.50;;
47335;SDS011;33068;51.990;5.926;2023-04-24T03:28:37;49.58;;;25.85;;
47335;SDS011;33068;51.990;5.926;2023-04-24T03:34:13;43.53;;;24.42;;
47335;SDS011;33068;51.990;5.926;2023-04-24T03:37:19;49.10;;;24.55;;
47335;SDS011;33068;51.990;5.926;2023-04-24T03:40:06;46.13;;;28.95;;
47335;SDS011;33068;51.990;5.926;2023-04-24T03:43:03;39.53;;;27.02;;
47335;SDS011;33068;51.990;5.926;2023-04-24T03:46:37;45.50;;;27.90;;
47335;SDS011;33068;51.990;5.926;2023-04-24T03:50:23;50.60;;;29.20;;
47335;SDS011;33068;51.990;5.926;2023-04-24T03:53:15;51.10;;;29.10;;
47335;SDS011;33068;51.990;5.926;2023-04-24T03:56:22;59.35;;;32.13;;
47335;SDS011;33068;51.990;5.926;2023-04-24T03:59:56;67.82;;;35.30;;
47335;SDS011;33068;51.990;5.926;2023-04-24T04:02:29;66.03;;;37.60;;
47335;SDS011;33068;51.990;5.926;2023-04-24T04:04:57;73.47;;;38.67;;
47335;SDS011;33068;51.990;5.926;2023-04-24T04:07:36;71.15;;;38.10;;
47335;SDS011;33068;51.990;5.926;2023-04-24T04:10:17;73.80;;;37.50;;
47335;SDS011;33068;51.990;5.926;2023-04-24T04:12:49;77.22;;;39.35;;
47335;SDS011;33068;51.990;5.926;2023-04-24T04:18:49;69.85;;;37.47;;
47335;SDS011;33068;51.990;5.926;2023-04-24T04:21:43;74.55;;;38.60;;
47335;SDS011;33068;51.990;5.926;2023-04-24T04:24:58;74.43;;;37.33;;
47335;SDS011;33068;51.990;5.926;2023-04-24T04:27:59;65.13;;;37.78;;
47335;SDS011;33068;51.990;5.926;2023-04-24T04:30:37;71.05;;;37.08;;
47335;SDS011;33068;51.990;5.926;2023-04-24T04:33:15;76.40;;;38.90;;
47335;SDS011;33068;51.990;5.926;2023-04-24T05:12:39;61.60;;;31.63;;
47335;SDS011;33068;51.990;5.926;2023-04-24T05:57:34;39.47;;;22.27;;
47335;SDS011;33068;51.990;5.926;2023-04-24T06:00:14;38.10;;;21.75;;
47335;SDS011;33068;51.990;5.926;2023-04-24T06:03:14;35.22;;;20.90;;
47335;SDS011;33068;51.990;5.926;2023-04-24T06:05:50;42.30;;;22.02;;
47335;SDS011;33068;51.990;5.926;2023-04-24T06:08:31;42.83;;;22.95;;
47335;SDS011;33068;51.990;5.926;2023-04-24T06:11:01;43.20;;;22.60;;
47335;SDS011;33068;51.990;5.926;2023-04-24T06:17:07;37.03;;;20.45;;
47335;SDS011;33068;51.990;5.926;2023-04-24T06:20:38;33.95;;;19.92;;
47335;SDS011;33068;51.990;5.926;2023-04-24T06:23:28;39.30;;;19.95;;
47335;SDS011;33068;51.990;5.926;2023-04-24T06:26:13;36.22;;;18.95;;
47335;SDS011;33068;51.990;5.926;2023-04-24T06:29:06;34.08;;;19.17;;
47335;SDS011;33068;51.990;5.926;2023-04-24T06:31:36;31.33;;;16.60;;
47335;SDS011;33068;51.990;5.926;2023-04-24T06:34:06;29.02;;;17.70;;
47335;SDS011;33068;51.990;5.926;2023-04-24T06:36:38;33.10;;;17.67;;
47335;SDS011;33068;51.990;5.926;2023-04-24T06:39:09;29.85;;;17.23;;
47335;SDS011;33068;51.990;5.926;2023-04-24T06:41:37;28.27;;;17.15;;
47335;SDS011;33068;51.990;5.926;2023-04-24T06:44:25;24.90;;;14.18;;
47335;SDS011;33068;51.990;5.926;2023-04-24T06:47:25;22.85;;;14.93;;
47335;SDS011;33068;51.990;5.926;2023-04-24T06:50:07;18.30;;;11.55;;
47335;SDS011;33068;51.990;5.926;2023-04-24T06:52:45;20.00;;;11.25;;
47335;SDS011;33068;51.990;5.926;2023-04-24T06:55:13;18.77;;;10.98;;
47335;SDS011;33068;51.990;5.926;2023-04-24T06:57:44;25.13;;;10.75;;
47335;SDS011;33068;51.990;5.926;2023-04-24T07:00:14;13.75;;;9.43;;
47335;SDS011;33068;51.990;5.926;2023-04-24T07:03:09;14.02;;;8.60;;
47335;SDS011;33068;51.990;5.926;2023-04-24T07:08:17;14.57;;;6.53;;
47335;SDS011;33068;51.990;5.926;2023-04-24T07:10:49;10.43;;;6.75;;
47335;SDS011;33068;51.990;5.926;2023-04-24T07:20:13;6.03;;;4.43;;
47335;SDS011;33068;51.990;5.926;2023-04-24T07:23:51;8.27;;;4.05;;
47335;SDS011;33068;51.990;5.926;2023-04-24T07:26:56;6.15;;;3.53;;
47335;SDS011;33068;51.990;5.926;2023-04-24T09:04:25;21.52;;;10.52;;
47335;SDS011;33068;51.990;5.926;2023-04-24T09:06:55;14.95;;;10.05;;
47335;SDS011;33068;51.990;5.926;2023-04-24T09:09:23;16.27;;;8.80;;
47335;SDS011;33068;51.990;5.926;2023-04-24T09:11:51;21.40;;;8.35;;
47335;SDS011;33068;51.990;5.926;2023-04-24T09:14:20;12.65;;;5.53;;
47335;SDS011;33068;51.990;5.926;2023-04-24T09:16:48;11.57;;;5.30;;
47335;SDS011;33068;51.990;5.926;2023-04-24T09:19:16;7.32;;;5.22;;
47335;SDS011;33068;51.990;5.926;2023-04-24T09:21:52;11.93;;;5.18;;
47335;SDS011;33068;51.990;5.926;2023-04-24T09:24:20;18.63;;;5.43;;
47335;SDS011;33068;51.990;5.926;2023-04-24T09:26:48;16.30;;;5.53;;
47335;SDS011;33068;51.990;5.926;2023-04-24T09:29:23;13.20;;;5.67;;
47335;SDS011;33068;51.990;5.926;2023-04-24T09:31:51;18.85;;;5.25;;
47335;SDS011;33068;51.990;5.926;2023-04-24T09:34:20;12.13;;;4.25;;
47335;SDS011;33068;51.990;5.926;2023-04-24T09:36:53;11.18;;;4.55;;
47335;SDS011;33068;51.990;5.926;2023-04-24T09:39:21;8.70;;;3.22;;
47335;SDS011;33068;51.990;5.926;2023-04-24T09:41:48;17.73;;;3.15;;
47335;SDS011;33068;51.990;5.926;2023-04-24T09:44:17;13.75;;;2.85;;
47335;SDS011;33068;51.990;5.926;2023-04-24T09:46:49;12.80;;;3.85;;
47335;SDS011;33068;51.990;5.926;2023-04-24T09:49:21;14.90;;;3.28;;
47335;SDS011;33068;51.990;5.926;2023-04-24T09:51:53;15.55;;;3.00;;
47335;SDS011;33068;51.990;5.926;2023-04-24T09:54:29;15.60;;;3.33;;
47335;SDS011;33068;51.990;5.926;2023-04-24T09:56:57;11.38;;;3.75;;
47335;SDS011;33068;51.990;5.926;2023-04-24T09:59:25;10.70;;;3.17;;
47335;SDS011;33068;51.990;5.926;2023-04-24T10:01:54;12.65;;;2.85;;
47335;SDS011;33068;51.990;5.926;2023-04-24T10:04:24;17.55;;;2.97;;
47335;SDS011;33068;51.990;5.926;2023-04-24T10:06:54;15.32;;;2.83;;
47335;SDS011;33068;51.990;5.926;2023-04-24T10:09:22;15.73;;;2.67;;
47335;SDS011;33068;51.990;5.926;2023-04-24T10:11:51;13.70;;;2.50;;
47335;SDS011;33068;51.990;5.926;2023-04-24T10:14:20;9.27;;;2.08;;
47335;SDS011;33068;51.990;5.926;2023-04-24T10:16:49;10.55;;;2.42;;
47335;SDS011;33068;51.990;5.926;2023-04-24T10:21:51;12.40;;;2.20;;
47335;SDS011;33068;51.990;5.926;2023-04-24T10:24:21;9.85;;;2.50;;
47335;SDS011;33068;51.990;5.926;2023-04-24T10:26:48;9.00;;;2.17;;
47335;SDS011;33068;51.990;5.926;2023-04-24T10:29:17;6.75;;;1.95;;
47335;SDS011;33068;51.990;5.926;2023-04-24T10:31:44;13.20;;;1.95;;
47335;SDS011;33068;51.990;5.926;2023-04-24T10:34:12;9.00;;;2.35;;
47335;SDS011;33068;51.990;5.926;2023-04-24T10:36:41;10.57;;;2.10;;
47335;SDS011;33068;51.990;5.926;2023-04-24T10:39:14;13.23;;;2.38;;
47335;SDS011;33068;51.990;5.926;2023-04-24T10:41:43;6.53;;;1.42;;
47335;SDS011;33068;51.990;5.926;2023-04-24T10:44:12;12.05;;;1.90;;
47335;SDS011;33068;51.990;5.926;2023-04-24T10:46:42;12.63;;;2.10;;
47335;SDS011;33068;51.990;5.926;2023-04-24T10:49:10;6.65;;;1.48;;
47335;SDS011;33068;51.990;5.926;2023-04-24T10:51:45;13.30;;;1.77;;
47335;SDS011;33068;51.990;5.926;2023-04-24T10:54:25;8.40;;;1.60;;
47335;SDS011;33068;51.990;5.926;2023-04-24T10:56:53;10.07;;;2.40;;
47335;SDS011;33068;51.990;5.926;2023-04-24T11:00:09;8.25;;;1.95;;
47335;SDS011;33068;51.990;5.926;2023-04-24T11:02:40;9.40;;;1.58;;
47335;SDS011;33068;51.990;5.926;2023-04-24T11:05:14;7.40;;;1.33;;
47335;SDS011;33068;51.990;5.926;2023-04-24T11:10:41;6.20;;;1.30;;
47335;SDS011;33068;51.990;5.926;2023-04-24T11:13:14;8.32;;;1.58;;
47335;SDS011;33068;51.990;5.926;2023-04-24T11:15:42;8.73;;;1.60;;
47335;SDS011;33068;51.990;5.926;2023-04-24T11:18:13;8.27;;;1.25;;
47335;SDS011;33068;51.990;5.926;2023-04-24T11:20:44;6.30;;;1.35;;
47335;SDS011;33068;51.990;5.926;2023-04-24T11:23:13;7.10;;;1.10;;
47335;SDS011;33068;51.990;5.926;2023-04-24T11:25:42;20.58;;;1.75;;
47335;SDS011;33068;51.990;5.926;2023-04-24T11:28:10;4.22;;;1.45;;
47335;SDS011;33068;51.990;5.926;2023-04-24T11:30:42;3.78;;;0.85;;
47335;SDS011;33068;51.990;5.926;2023-04-24T11:33:10;1.33;;;0.50;;
47335;SDS011;33068;51.990;5.926;2023-04-24T11:35:39;4.88;;;0.70;;
47335;SDS011;33068;51.990;5.926;2023-04-24T11:38:06;5.63;;;0.93;;
47335;SDS011;33068;51.990;5.926;2023-04-24T11:40:38;5.05;;;0.63;;
47335;SDS011;33068;51.990;5.926;2023-04-24T11:43:06;3.03;;;0.73;;
47335;SDS011;33068;51.990;5.926;2023-04-24T11:45:35;4.30;;;0.45;;
47335;SDS011;33068;51.990;5.926;2023-04-24T11:48:02;3.45;;;0.80;;
47335;SDS011;33068;51.990;5.926;2023-04-24T11:50:30;3.30;;;0.30;;
47335;SDS011;33068;51.990;5.926;2023-04-24T11:52:57;4.93;;;0.50;;
47335;SDS011;33068;51.990;5.926;2023-04-24T11:55:26;2.88;;;0.30;;
47335;SDS011;33068;51.990;5.926;2023-04-24T11:57:55;5.03;;;0.52;;
47335;SDS011;33068;51.990;5.926;2023-04-24T12:00:25;3.55;;;0.40;;
47335;SDS011;33068;51.990;5.926;2023-04-24T12:03:03;5.00;;;0.43;;
47335;SDS011;33068;51.990;5.926;2023-04-24T12:05:41;0.90;;;0.38;;
47335;SDS011;33068;51.990;5.926;2023-04-24T12:08:09;3.28;;;0.50;;
47335;SDS011;33068;51.990;5.926;2023-04-24T12:10:37;5.45;;;0.52;;
47335;SDS011;33068;51.990;5.926;2023-04-24T12:16:48;2.72;;;0.60;;
47335;SDS011;33068;51.990;5.926;2023-04-24T12:19:17;3.60;;;0.57;;
47335;SDS011;33068;51.990;5.926;2023-04-24T12:21:58;1.33;;;0.57;;
47335;SDS011;33068;51.990;5.926;2023-04-24T12:24:27;2.75;;;0.47;;
47335;SDS011;33068;51.990;5.926;2023-04-24T12:26:54;5.07;;;0.75;;
47335;SDS011;33068;51.990;5.926;2023-04-24T12:29:21;5.72;;;0.63;;
47335;SDS011;33068;51.990;5.926;2023-04-24T12:31:50;6.20;;;0.55;;
47335;SDS011;33068;51.990;5.926;2023-04-24T12:34:20;3.80;;;0.65;;
47335;SDS011;33068;51.990;5.926;2023-04-24T12:36:48;2.97;;;0.50;;
47335;SDS011;33068;51.990;5.926;2023-04-24T12:39:16;3.17;;;0.40;;
47335;SDS011;33068;51.990;5.926;2023-04-24T12:41:54;2.42;;;0.40;;
47335;SDS011;33068;51.990;5.926;2023-04-24T12:44:28;5.97;;;0.65;;
47335;SDS011;33068;51.990;5.926;2023-04-24T12:49:25;1.27;;;0.35;;
47335;SDS011;33068;51.990;5.926;2023-04-24T12:51:52;2.63;;;0.40;;
47335;SDS011;33068;51.990;5.926;2023-04-24T12:54:20;7.78;;;0.55;;
47335;SDS011;33068;51.990;5.926;2023-04-24T12:56:48;2.33;;;0.45;;
47335;SDS011;33068;51.990;5.926;2023-04-24T12:59:17;0.57;;;0.25;;
47335;SDS011;33068;51.990;5.926;2023-04-24T13:01:46;1.50;;;0.45;;
47335;SDS011;33068;51.990;5.926;2023-04-24T13:04:16;3.17;;;0.70;;
47335;SDS011;33068;51.990;5.926;2023-04-24T13:06:44;3.88;;;0.45;;
47335;SDS011;33068;51.990;5.926;2023-04-24T13:09:11;2.37;;;0.40;;
47335;SDS011;33068;51.990;5.926;2023-04-24T13:11:38;3.40;;;0.30;;
47335;SDS011;33068;51.990;5.926;2023-04-24T13:14:05;5.15;;;0.50;;
47335;SDS011;33068;51.990;5.926;2023-04-24T13:16:32;3.72;;;0.50;;
47335;SDS011;33068;51.990;5.926;2023-04-24T13:19:00;2.33;;;0.32;;
47335;SDS011;33068;51.990;5.926;2023-04-24T13:21:31;3.45;;;0.30;;
47335;SDS011;33068;51.990;5.926;2023-04-24T13:23:58;5.00;;;0.68;;
47335;SDS011;33068;51.990;5.926;2023-04-24T13:26:25;3.95;;;0.70;;
47335;SDS011;33068;51.990;5.926;2023-04-24T13:28:53;5.03;;;0.68;;
47335;SDS011;33068;51.990;5.926;2023-04-24T13:31:20;2.97;;;0.80;;
47335;SDS011;33068;51.990;5.926;2023-04-24T13:33:47;4.82;;;0.85;;
47335;SDS011;33068;51.990;5.926;2023-04-24T13:36:17;4.40;;;0.90;;
47335;SDS011;33068;51.990;5.926;2023-04-24T13:38:46;8.95;;;0.80;;
47335;SDS011;33068;51.990;5.926;2023-04-24T13:41:13;4.72;;;1.25;;
47335;SDS011;33068;51.990;5.926;2023-04-24T13:43:40;9.82;;;2.80;;
47335;SDS011;33068;51.990;5.926;2023-04-24T13:46:08;9.35;;;3.95;;
47335;SDS011;33068;51.990;5.926;2023-04-24T13:48:35;6.70;;;0.98;;
47335;SDS011;33068;51.990;5.926;2023-04-24T13:51:02;6.80;;;1.02;;
47335;SDS011;33068;51.990;5.926;2023-04-24T13:53:30;7.93;;;0.60;;
47335;SDS011;33068;51.990;5.926;2023-04-24T13:55:58;4.07;;;0.60;;
47335;SDS011;33068;51.990;5.926;2023-04-24T13:58:26;5.90;;;0.98;;
47335;SDS011;33068;51.990;5.926;2023-04-24T14:00:53;9.27;;;1.10;;
47335;SDS011;33068;51.990;5.926;2023-04-24T14:03:20;4.82;;;0.90;;
47335;SDS011;33068;51.990;5.926;2023-04-24T14:05:50;5.85;;;0.90;;
47335;SDS011;33068;51.990;5.926;2023-04-24T14:08:21;4.72;;;0.93;;
47335;SDS011;33068;51.990;5.926;2023-04-24T14:11:03;6.03;;;0.82;;
47335;SDS011;33068;51.990;5.926;2023-04-24T14:13:35;7.53;;;1.05;;
47335;SDS011;33068;51.990;5.926;2023-04-24T14:16:15;5.65;;;0.77;;
47335;SDS011;33068;51.990;5.926;2023-04-24T14:19:00;7.32;;;1.10;;
47335;SDS011;33068;51.990;5.926;2023-04-24T14:21:34;8.93;;;1.27;;
47335;SDS011;33068;51.990;5.926;2023-04-24T14:24:04;6.43;;;1.27;;
47335;SDS011;33068;51.990;5.926;2023-04-24T14:26:40;9.60;;;1.15;;
47335;SDS011;33068;51.990;5.926;2023-04-24T14:29:08;9.02;;;1.08;;
47335;SDS011;33068;51.990;5.926;2023-04-24T14:31:42;8.35;;;1.60;;
47335;SDS011;33068;51.990;5.926;2023-04-24T14:34:23;8.45;;;1.10;;
47335;SDS011;33068;51.990;5.926;2023-04-24T14:36:51;8.73;;;1.42;;
47335;SDS011;33068;51.990;5.926;2023-04-24T14:39:25;7.57;;;1.90;;
47335;SDS011;33068;51.990;5.926;2023-04-24T14:42:02;6.75;;;1.30;;
47335;SDS011;33068;51.990;5.926;2023-04-24T14:44:30;11.23;;;1.65;;
47335;SDS011;33068;51.990;5.926;2023-04-24T14:46:58;9.10;;;1.35;;
47335;SDS011;33068;51.990;5.926;2023-04-24T14:49:25;6.85;;;0.98;;
47335;SDS011;33068;51.990;5.926;2023-04-24T14:51:57;8.82;;;1.20;;
47335;SDS011;33068;51.990;5.926;2023-04-24T14:54:24;9.90;;;1.50;;
47335;SDS011;33068;51.990;5.926;2023-04-24T14:56:54;9.95;;;1.98;;
47335;SDS011;33068;51.990;5.926;2023-04-24T14:59:48;7.55;;;1.48;;
47335;SDS011;33068;51.990;5.926;2023-04-24T15:02:16;8.10;;;1.17;;
47335;SDS011;33068;51.990;5.926;2023-04-24T15:04:45;9.45;;;1.73;;
47335;SDS011;33068;51.990;5.926;2023-04-24T15:07:18;6.13;;;1.30;;
47335;SDS011;33068;51.990;5.926;2023-04-24T15:09:46;11.93;;;1.70;;
47335;SDS011;33068;51.990;5.926;2023-04-24T15:12:15;13.50;;;1.85;;
47335;SDS011;33068;51.990;5.926;2023-04-24T15:14:42;12.48;;;2.08;;
47335;SDS011;33068;51.990;5.926;2023-04-24T15:17:12;12.15;;;2.35;;
47335;SDS011;33068;51.990;5.926;2023-04-24T15:19:42;10.65;;;2.03;;
47335;SDS011;33068;51.990;5.926;2023-04-24T15:22:09;14.57;;;2.42;;
47335;SDS011;33068;51.990;5.926;2023-04-24T15:24:40;10.55;;;1.70;;
47335;SDS011;33068;51.990;5.926;2023-04-24T15:27:11;8.73;;;2.13;;
47335;SDS011;33068;51.990;5.926;2023-04-24T15:29:41;16.52;;;2.40;;
47335;SDS011;33068;51.990;5.926;2023-04-24T15:32:11;9.32;;;1.98;;
47335;SDS011;33068;51.990;5.926;2023-04-24T15:34:41;7.85;;;1.48;;
47335;SDS011;33068;51.990;5.926;2023-04-24T15:37:22;4.30;;;1.92;;
47335;SDS011;33068;51.990;5.926;2023-04-24T15:44:02;10.95;;;1.98;;
47335;SDS011;33068;51.990;5.926;2023-04-24T15:47:12;6.57;;;1.90;;
47335;SDS011;33068;51.990;5.926;2023-04-24T15:49:50;8.85;;;1.80;;
47335;SDS011;33068;51.990;5.926;2023-04-24T15:52:21;5.35;;;1.55;;
47335;SDS011;33068;51.990;5.926;2023-04-24T15:55:08;11.45;;;1.77;;
47335;SDS011;33068;51.990;5.926;2023-04-24T15:58:17;10.45;;;2.30;;
47335;SDS011;33068;51.990;5.926;2023-04-24T16:00:47;11.30;;;2.05;;
47335;SDS011;33068;51.990;5.926;2023-04-24T16:03:20;8.70;;;1.88;;
47335;SDS011;33068;51.990;5.926;2023-04-24T16:05:47;12.73;;;2.03;;
47335;SDS011;33068;51.990;5.926;2023-04-24T16:08:14;10.93;;;2.20;;
47335;SDS011;33068;51.990;5.926;2023-04-24T16:10:41;5.88;;;1.85;;
47335;SDS011;33068;51.990;5.926;2023-04-24T16:13:11;7.28;;;1.83;;
47335;SDS011;33068;51.990;5.926;2023-04-24T16:15:38;9.13;;;2.35;;
47335;SDS011;33068;51.990;5.926;2023-04-24T16:18:05;9.52;;;1.88;;
47335;SDS011;33068;51.990;5.926;2023-04-24T16:20:34;12.43;;;2.70;;
47335;SDS011;33068;51.990;5.926;2023-04-24T16:23:01;8.70;;;2.15;;
47335;SDS011;33068;51.990;5.926;2023-04-24T16:25:29;8.80;;;2.17;;
47335;SDS011;33068;51.990;5.926;2023-04-24T16:27:56;8.70;;;2.35;;
47335;SDS011;33068;51.990;5.926;2023-04-24T16:30:23;9.35;;;2.55;;
47335;SDS011;33068;51.990;5.926;2023-04-24T16:32:50;12.80;;;3.47;;
47335;SDS011;33068;51.990;5.926;2023-04-24T16:35:18;13.75;;;2.72;;
47335;SDS011;33068;51.990;5.926;2023-04-24T16:37:46;15.23;;;3.40;;
47335;SDS011;33068;51.990;5.926;2023-04-24T16:40:14;14.57;;;3.53;;
47335;SDS011;33068;51.990;5.926;2023-04-24T16:42:41;10.13;;;3.63;;
47335;SDS011;33068;51.990;5.926;2023-04-24T16:45:08;19.35;;;3.42;;
47335;SDS011;33068;51.990;5.926;2023-04-24T16:47:36;11.57;;;2.95;;
47335;SDS011;33068;51.990;5.926;2023-04-24T16:50:06;15.63;;;2.90;;
47335;SDS011;33068;51.990;5.926;2023-04-24T16:52:34;18.35;;;3.00;;
47335;SDS011;33068;51.990;5.926;2023-04-24T16:55:02;10.48;;;2.95;;
47335;SDS011;33068;51.990;5.926;2023-04-24T16:57:30;11.05;;;2.60;;
47335;SDS011;33068;51.990;5.926;2023-04-24T16:59:57;13.82;;;1.95;;
47335;SDS011;33068;51.990;5.926;2023-04-24T17:02:24;13.70;;;2.95;;
47335;SDS011;33068;51.990;5.926;2023-04-24T17:04:54;8.98;;;2.72;;
47335;SDS011;33068;51.990;5.926;2023-04-24T17:07:21;6.35;;;2.05;;
47335;SDS011;33068;51.990;5.926;2023-04-24T17:09:51;10.65;;;1.98;;
47335;SDS011;33068;51.990;5.926;2023-04-24T17:12:20;6.90;;;2.00;;
47335;SDS011;33068;51.990;5.926;2023-04-24T17:14:47;10.25;;;2.55;;
47335;SDS011;33068;51.990;5.926;2023-04-24T17:17:14;10.27;;;2.20;;
47335;SDS011;33068;51.990;5.926;2023-04-24T17:19:42;8.27;;;2.50;;
47335;SDS011;33068;51.990;5.926;2023-04-24T17:22:09;9.63;;;2.05;;
47335;SDS011;33068;51.990;5.926;2023-04-24T17:24:36;11.43;;;2.97;;
47335;SDS011;33068;51.990;5.926;2023-04-24T17:27:03;7.53;;;1.80;;
47335;SDS011;33068;51.990;5.926;2023-04-24T17:29:32;9.30;;;2.30;;
47335;SDS011;33068;51.990;5.926;2023-04-24T17:31:59;7.93;;;2.03;;
47335;SDS011;33068;51.990;5.926;2023-04-24T17:34:27;14.13;;;3.00;;
47335;SDS011;33068;51.990;5.926;2023-04-24T17:36:54;8.68;;;3.30;;
47335;SDS011;33068;51.990;5.926;2023-04-24T17:39:21;13.88;;;3.05;;
47335;SDS011;33068;51.990;5.926;2023-04-24T17:41:48;15.00;;;2.65;;
47335;SDS011;33068;51.990;5.926;2023-04-24T17:44:15;9.55;;;2.90;;
47335;SDS011;33068;51.990;5.926;2023-04-24T17:46:44;12.77;;;3.10;;
47335;SDS011;33068;51.990;5.926;2023-04-24T17:49:14;9.23;;;2.40;;
47335;SDS011;33068;51.990;5.926;2023-04-24T17:51:41;9.77;;;2.65;;
47335;SDS011;33068;51.990;5.926;2023-04-24T17:54:08;15.65;;;3.63;;
47335;SDS011;33068;51.990;5.926;2023-04-24T17:56:35;10.27;;;3.50;;
47335;SDS011;33068;51.990;5.926;2023-04-24T17:59:02;10.23;;;2.80;;
47335;SDS011;33068;51.990;5.926;2023-04-24T18:01:29;10.13;;;2.40;;
47335;SDS011;33068;51.990;5.926;2023-04-24T18:03:58;10.57;;;2.67;;
47335;SDS011;33068;51.990;5.926;2023-04-24T18:06:25;12.45;;;2.88;;
47335;SDS011;33068;51.990;5.926;2023-04-24T18:08:52;7.80;;;3.40;;
47335;SDS011;33068;51.990;5.926;2023-04-24T18:11:20;8.23;;;2.47;;
47335;SDS011;33068;51.990;5.926;2023-04-24T18:13:47;11.80;;;2.95;;
47335;SDS011;33068;51.990;5.926;2023-04-24T18:16:14;20.42;;;3.20;;
47335;SDS011;33068;51.990;5.926;2023-04-24T18:18:44;16.42;;;3.60;;
47335;SDS011;33068;51.990;5.926;2023-04-24T18:21:13;12.68;;;2.92;;
47335;SDS011;33068;51.990;5.926;2023-04-24T18:23:40;19.23;;;3.53;;
47335;SDS011;33068;51.990;5.926;2023-04-24T18:26:07;14.98;;;3.15;;
47335;SDS011;33068;51.990;5.926;2023-04-24T18:28:34;15.63;;;2.72;;
47335;SDS011;33068;51.990;5.926;2023-04-24T18:31:01;14.82;;;3.05;;
47335;SDS011;33068;51.990;5.926;2023-04-24T18:33:28;8.05;;;2.88;;
47335;SDS011;33068;51.990;5.926;2023-04-24T18:35:55;10.20;;;3.53;;
47335;SDS011;33068;51.990;5.926;2023-04-24T18:38:24;14.80;;;3.38;;
47335;SDS011;33068;51.990;5.926;2023-04-24T18:40:51;14.80;;;3.55;;
47335;SDS011;33068;51.990;5.926;2023-04-24T18:43:19;16.42;;;3.70;;
47335;SDS011;33068;51.990;5.926;2023-04-24T18:45:46;15.13;;;3.50;;
47335;SDS011;33068;51.990;5.926;2023-04-24T18:48:13;14.15;;;3.33;;
47335;SDS011;33068;51.990;5.926;2023-04-24T18:50:40;22.83;;;5.32;;
47335;SDS011;33068;51.990;5.926;2023-04-24T18:53:07;17.00;;;3.90;;
47335;SDS011;33068;51.990;5.926;2023-04-24T18:55:38;18.85;;;5.40;;
47335;SDS011;33068;51.990;5.926;2023-04-24T18:58:05;11.18;;;3.40;;
47335;SDS011;33068;51.990;5.926;2023-04-24T19:00:33;11.88;;;3.70;;
47335;SDS011;33068;51.990;5.926;2023-04-24T19:03:00;12.48;;;2.90;;
47335;SDS011;33068;51.990;5.926;2023-04-24T19:05:27;17.73;;;4.35;;
47335;SDS011;33068;51.990;5.926;2023-04-24T19:07:54;13.88;;;3.55;;
47335;SDS011;33068;51.990;5.926;2023-04-24T19:10:21;16.10;;;3.78;;
47335;SDS011;33068;51.990;5.926;2023-04-24T19:12:49;21.13;;;3.50;;
47335;SDS011;33068;51.990;5.926;2023-04-24T19:15:22;12.10;;;3.80;;
47335;SDS011;33068;51.990;5.926;2023-04-24T19:17:49;19.08;;;3.70;;
47335;SDS011;33068;51.990;5.926;2023-04-24T19:20:17;21.08;;;3.25;;
47335;SDS011;33068;51.990;5.926;2023-04-24T19:22:44;17.98;;;3.67;;
47335;SDS011;33068;51.990;5.926;2023-04-24T19:25:12;17.05;;;3.63;;
47335;SDS011;33068;51.990;5.926;2023-04-24T19:27:41;16.90;;;3.35;;
47335;SDS011;33068;51.990;5.926;2023-04-24T19:30:10;20.25;;;3.97;;
47335;SDS011;33068;51.990;5.926;2023-04-24T19:32:37;18.38;;;4.15;;